Time;durP1;ratioP1;P1;durP2;ratioP2;P2;SDS_P1;SDS_P2;PMS_P1;PMS_P2;Temp;Humidity;BMP_temperature;BMP_pressure;BME280_temperature;BME280_humidity;BME280_pressure;Samples;Min_cycle;Max_cycle;Signal;HPM_P1;HPM_P2
2022/07/27 00:01:45;;;;;;;7.72;3.22;;;;;;;22.59;73.52;98068.75;4981971;28;20496;-59
2022/07/27 00:04:10;;;;;;;6.25;3.60;;;;;;;22.45;76.45;98060.28;4998458;28;20913;-59
2022/07/27 00:06:36;;;;;;;7.05;3.58;;;;;;;22.37;74.98;98083.69;4981474;28;20029;-58
2022/07/27 00:09:01;;;;;;;6.95;3.10;;;;;;;22.41;74.46;98082.16;4990627;28;20038;-59
2022/07/27 00:11:27;;;;;;;5.80;3.15;;;;;;;22.52;73.28;98081.34;4993112;28;20122;-59
2022/07/27 00:13:52;;;;;;;6.57;2.95;;;;;;;22.52;73.14;98073.38;4998488;28;20025;-58
2022/07/27 00:16:17;;;;;;;5.78;3.05;;;;;;;22.62;72.96;98078.91;4999864;28;20014;-58
2022/07/27 00:18:43;;;;;;;7.18;3.15;;;;;;;22.60;73.05;98072.22;4993870;28;20099;-59
2022/07/27 00:21:09;;;;;;;8.25;3.22;;;;;;;22.62;73.25;98073.59;5002588;28;20022;-59
2022/07/27 00:23:34;;;;;;;6.47;3.10;;;;;;;22.62;74.10;98059.56;4998589;28;20467;-58
2022/07/27 00:26:00;;;;;;;7.45;2.90;;;;;;;22.60;72.47;98058.97;5007047;28;20033;-59
2022/07/27 00:28:25;;;;;;;6.40;3.13;;;;;;;22.58;73.91;98050.44;5005441;28;20030;-60
2022/07/27 00:30:50;;;;;;;6.40;3.00;;;;;;;22.60;73.13;98045.75;4994952;28;20041;-59
2022/07/27 00:33:16;;;;;;;6.55;3.10;;;;;;;22.60;72.26;98049.19;5000256;28;20041;-59
2022/07/27 00:35:41;;;;;;;5.45;2.78;;;;;;;22.67;71.96;98043.75;4999644;28;20041;-60
2022/07/27 00:38:07;;;;;;;6.32;3.08;;;;;;;22.64;72.37;98050.31;5000093;28;20030;-59
2022/07/27 00:40:32;;;;;;;5.95;2.72;;;;;;;22.56;71.58;98050.69;5001644;28;20026;-59
2022/07/27 00:42:57;;;;;;;5.88;3.10;;;;;;;22.42;71.86;98060.75;5000384;28;20144;-59
2022/07/27 00:45:23;;;;;;;5.65;2.67;;;;;;;22.40;70.89;98062.03;4999458;28;20076;-60
2022/07/27 00:47:48;;;;;;;6.47;3.08;;;;;;;22.41;71.41;98064.44;4999488;28;20079;-59
2022/07/27 00:50:14;;;;;;;6.68;2.88;;;;;;;22.55;70.88;98070.28;5000128;28;20310;-60
2022/07/27 00:52:40;;;;;;;6.55;2.80;;;;;;;22.53;71.87;98069.72;5000886;28;20101;-59
2022/07/27 00:55:06;;;;;;;7.25;2.90;;;;;;;22.49;72.93;98071.22;5013691;28;20034;-59
2022/07/27 00:57:32;;;;;;;6.60;2.65;;;;;;;22.45;72.14;98070.88;4999478;28;20503;-60
2022/07/27 00:59:57;;;;;;;6.82;3.00;;;;;;;22.55;72.13;98077.44;4999360;28;20030;-60
2022/07/27 01:02:23;;;;;;;5.60;2.80;;;;;;;22.29;71.87;98033.72;4997776;28;20080;-58
2022/07/27 01:04:48;;;;;;;5.75;2.78;;;;;;;22.35;70.76;98048.69;4996372;28;20030;-60
2022/07/27 01:07:13;;;;;;;7.63;3.10;;;;;;;;;;4997641;28;20048;-59
2022/07/27 01:09:57;;;;;;;6.15;2.75;;;;;;;22.55;69.97;98082.72;5000221;28;20769;-59
2022/07/27 01:12:25;;;;;;;5.55;2.67;;;;;;;22.52;69.26;98076.03;4995405;28;20025;-58
2022/07/27 01:14:51;;;;;;;5.97;2.83;;;;;;;22.39;69.93;98040.03;4994001;28;20038;-60
2022/07/27 01:17:17;;;;;;;5.93;2.95;;;;;;;22.27;69.97;98031.34;4998934;28;20044;-59
2022/07/27 01:19:43;;;;;;;4.68;2.67;;;;;;;22.52;70.00;98060.13;4983255;28;20106;-59
2022/07/27 01:22:09;;;;;;;6.78;2.78;;;;;;;22.51;70.59;98068.34;4999170;28;20026;-59
2022/07/27 01:24:34;;;;;;;6.05;2.90;;;;;;;22.33;70.78;98030.38;4999241;28;20401;-60
2022/07/27 01:27:01;;;;;;;5.60;2.75;;;;;;;22.56;71.50;98066.59;4997929;28;20041;-59
2022/07/27 01:29:26;;;;;;;6.97;2.90;;;;;;;;;;4996976;28;20326;-60
2022/07/27 01:31:52;;;;;;;6.53;2.80;;;;;;;22.57;71.51;98062.09;4999571;28;20543;-59
2022/07/27 01:34:17;;;;;;;5.65;2.35;;;;;;;22.67;71.89;98064.94;4996607;28;20467;-59
2022/07/27 01:36:44;;;;;;;6.93;2.50;;;;;;;22.50;72.13;98064.88;4998879;28;20454;-59
2022/07/27 01:39:14;;;;;;;5.72;2.67;;;;;;;22.43;72.58;98062.38;4998565;28;20080;-59
2022/07/27 01:41:39;;;;;;;5.93;2.63;;;;;;;22.40;72.78;98065.47;4998397;28;20034;-60
2022/07/27 01:44:05;;;;;;;6.03;2.80;;;;;;;22.23;73.11;98062.75;4999970;28;20606;-61
2022/07/27 01:46:30;;;;;;;5.50;2.40;;;;;;;22.01;73.85;98036.06;4979496;28;20026;-59
2022/07/27 01:48:56;;;;;;;5.53;2.80;;;;;;;22.27;73.67;98050.66;4996604;28;20041;-59
2022/07/27 01:51:21;;;;;;;6.85;2.83;;;;;;;22.28;73.61;98048.81;4998976;28;20428;-60
2022/07/27 01:53:46;;;;;;;6.00;2.83;;;;;;;22.28;74.26;98040.88;4994842;28;20038;-58
2022/07/27 01:56:12;;;;;;;6.25;2.80;;;;;;;22.16;74.80;98046.19;4982149;28;20376;-60
2022/07/27 01:58:39;;;;;;;6.45;2.90;;;;;;;21.94;76.08;98038.03;4999284;28;20528;-59
2022/07/27 02:01:05;;;;;;;6.50;3.05;;;;;;;21.94;76.94;98037.22;4997141;28;20022;-58
2022/07/27 02:03:30;;;;;;;5.30;2.90;;;;;;;21.98;76.91;98025.16;4994842;28;20685;-60
2022/07/27 02:05:56;;;;;;;5.10;2.90;;;;;;;22.00;76.98;98018.56;4999796;28;20080;-59
2022/07/27 02:08:21;;;;;;;6.72;3.17;;;;;;;22.04;76.94;98032.94;4999188;28;20557;-59
2022/07/27 02:13:30;;;;;;;7.18;3.10;;;;;;;22.10;76.45;98033.84;4996754;28;20033;-58
2022/07/27 02:15:56;;;;;;;6.50;2.85;;;;;;;22.04;76.97;98038.25;4981038;28;20117;-61
2022/07/27 02:18:22;;;;;;;6.22;3.20;;;;;;;21.93;77.57;98019.75;4982488;28;20435;-59
2022/07/27 02:20:48;;;;;;;6.57;3.28;;;;;;;21.98;78.33;98031.25;4997177;28;20048;-59
2022/07/27 02:23:13;;;;;;;6.05;2.85;;;;;;;21.96;78.63;98041.25;5004046;28;20974;-60
2022/07/27 02:25:39;;;;;;;5.90;3.00;;;;;;;21.87;78.68;98037.34;5003923;28;20084;-59
2022/07/27 02:28:05;;;;;;;6.88;3.83;;;;;;;21.46;79.26;97970.31;5001319;28;20432;-60
2022/07/27 02:30:30;;;;;;;6.53;3.50;;;;;;;21.81;79.43;98040.91;5002372;28;20041;-59
2022/07/27 02:32:56;;;;;;;5.47;3.00;;;;;;;21.87;79.36;98040.00;5000239;28;20018;-59
2022/07/27 02:35:21;;;;;;;8.45;3.22;;;;;;;21.95;78.84;98052.88;4985836;28;20069;-59
2022/07/27 02:37:47;;;;;;;6.15;3.15;;;;;;;21.83;80.37;98055.53;4994958;28;20457;-60
2022/07/27 02:40:15;;;;;;;5.80;3.10;;;;;;;21.82;79.10;98071.63;5002375;28;20149;-59
2022/07/27 02:42:42;;;;;;;7.20;3.50;;;;;;;21.53;79.66;98037.13;4996888;28;20149;-59
2022/07/27 02:45:08;;;;;;;6.43;3.17;;;;;;;21.61;79.89;98036.78;5003151;28;20030;-60
2022/07/27 02:47:33;;;;;;;6.97;3.53;;;;;;;21.88;79.53;98074.16;5003498;28;20034;-59
2022/07/27 02:50:03;;;;;;;5.80;3.50;;;;;;;21.97;79.81;98069.31;4997901;28;20081;-59
2022/07/27 02:52:28;;;;;;;6.18;3.22;;;;;;;21.92;79.83;98079.00;5002906;28;20025;-59
2022/07/27 02:54:54;;;;;;;7.07;3.25;;;;;;;21.99;79.17;98077.81;5003635;28;20025;-58
2022/07/27 02:57:19;;;;;;;6.20;3.13;;;;;;;21.96;78.94;98088.91;4975403;28;20481;-59
2022/07/27 02:59:45;;;;;;;7.28;3.65;;;;;;;21.93;79.09;98093.84;4989582;28;20018;-58
2022/07/27 03:02:11;;;;;;;7.10;3.45;;;;;;;21.95;78.39;98083.84;5002805;28;20018;-59
2022/07/27 03:04:36;;;;;;;6.25;2.92;;;;;;;22.19;78.11;98109.22;4999564;28;20042;-60
2022/07/27 03:07:02;;;;;;;7.72;3.47;;;;;;;22.32;78.17;98110.06;5002922;28;20457;-59
2022/07/27 03:09:27;;;;;;;7.15;3.10;;;;;;;22.42;77.52;98113.72;5003228;28;20034;-59
2022/07/27 03:11:52;;;;;;;7.10;3.10;;;;;;;22.26;77.57;98070.22;5002369;28;20054;-59
2022/07/27 03:14:18;;;;;;;9.25;3.90;;;;;;;22.44;77.89;98110.84;5016094;28;20129;-59
2022/07/27 03:16:44;;;;;;;6.90;3.20;;;;;;;22.52;77.25;98105.16;4978250;28;20692;-59
2022/07/27 03:19:09;;;;;;;5.60;3.00;;;;;;;22.61;76.65;98108.28;5000678;28;20481;-59
2022/07/27 03:21:35;;;;;;;5.35;3.13;;;;;;;22.54;77.04;98103.09;4987469;28;20030;-59
2022/07/27 03:24:00;;;;;;;5.30;3.00;;;;;;;22.46;76.63;98098.16;5030625;28;20453;-59
2022/07/27 03:26:25;;;;;;;6.43;3.10;;;;;;;22.28;77.10;98070.00;5001587;28;20487;-59
2022/07/27 03:28:51;;;;;;;7.10;3.40;;;;;;;22.23;76.96;98056.63;4985085;28;20018;-60
2022/07/27 03:31:16;;;;;;;7.18;3.25;;;;;;;22.50;77.38;98080.75;4986238;28;20449;-58
2022/07/27 03:33:42;;;;;;;6.05;2.95;;;;;;;22.56;77.47;98085.13;5001279;28;20022;-58
2022/07/27 03:36:07;;;;;;;6.95;3.42;;;;;;;22.57;77.61;98084.09;4996953;28;20028;-59
2022/07/27 03:38:33;;;;;;;6.03;3.17;;;;;;;22.54;77.80;98081.09;5001945;28;20625;-58
2022/07/27 03:40:58;;;;;;;6.93;3.40;;;;;;;22.29;79.48;98087.50;5000968;28;20018;-59
2022/07/27 03:43:24;;;;;;;6.65;3.42;;;;;;;22.26;80.35;98088.75;5014179;28;20112;-59
2022/07/27 03:45:50;;;;;;;5.93;3.33;;;;;;;21.99;81.26;98075.19;4995942;28;20030;-60
2022/07/27 03:48:15;;;;;;;5.55;3.20;;;;;;;21.78;81.41;98046.69;4996893;28;20030;-58
2022/07/27 03:50:41;;;;;;;7.20;3.20;;;;;;;21.85;81.68;98076.47;4984611;28;20057;-59
2022/07/27 03:53:06;;;;;;;6.00;3.30;;;;;;;21.83;82.17;98075.88;4998580;28;20030;-58
2022/07/27 03:55:31;;;;;;;7.88;3.50;;;;;;;21.89;82.09;98088.22;4997681;28;20421;-60
2022/07/27 03:57:57;;;;;;;7.65;3.50;;;;;;;21.84;81.79;98080.94;5001992;28;20092;-59
2022/07/27 04:00:22;;;;;;;6.75;3.15;;;;;;;21.85;81.57;98085.22;5002593;28;20373;-59
2022/07/27 04:02:48;;;;;;;6.35;3.38;;;;;;;21.77;82.02;98082.91;5001182;28;20022;-59
2022/07/27 04:05:13;;;;;;;5.80;2.95;;;;;;;21.86;81.51;98092.09;5002062;28;20476;-60
2022/07/27 04:07:39;;;;;;;7.30;3.58;;;;;;;21.73;82.08;98089.69;5001069;28;20057;-59
2022/07/27 04:10:05;;;;;;;6.28;3.30;;;;;;;21.68;82.97;98082.47;4985122;28;20026;-64
2022/07/27 04:12:31;;;;;;;6.13;2.92;;;;;;;21.68;83.16;98087.75;4995598;28;20038;-58
2022/07/27 04:14:56;;;;;;;6.78;3.30;;;;;;;21.71;82.69;98090.97;4982590;28;20036;-59
2022/07/27 04:17:22;;;;;;;6.10;3.13;;;;;;;21.73;82.97;98091.53;5012418;28;20030;-59
2022/07/27 04:19:47;;;;;;;6.35;3.53;;;;;;;21.70;83.19;98087.50;4984871;28;20022;-58
2022/07/27 04:22:12;;;;;;;8.63;3.50;;;;;;;21.63;84.02;98084.97;4999651;28;20034;-59
2022/07/27 04:24:38;;;;;;;6.18;3.40;;;;;;;21.61;84.51;98073.81;4998411;28;20033;-60
2022/07/27 04:27:03;;;;;;;6.95;3.50;;;;;;;21.49;85.08;98076.44;4999908;28;20468;-58
2022/07/27 04:29:29;;;;;;;6.57;3.40;;;;;;;21.61;85.16;98079.13;4992702;28;20038;-61
2022/07/27 04:31:54;;;;;;;6.30;3.53;;;;;;;21.44;85.20;98047.19;4979359;28;20426;-59
2022/07/27 04:34:19;;;;;;;5.85;3.00;;;;;;;21.71;84.63;98077.75;4996694;28;20527;-59
2022/07/27 04:36:45;;;;;;;7.18;3.40;;;;;;;21.57;84.34;98042.75;4997788;28;20022;-59
2022/07/27 04:39:10;;;;;;;5.20;3.05;;;;;;;21.62;84.75;98082.56;4997027;28;20026;-61
2022/07/27 04:41:36;;;;;;;7.32;3.20;;;;;;;21.56;85.39;98079.00;4999201;28;20079;-58
2022/07/27 04:44:01;;;;;;;6.25;3.50;;;;;;;21.54;85.29;98077.59;4982694;28;20176;-59
2022/07/27 04:46:28;;;;;;;6.32;3.67;;;;;;;21.37;84.95;98032.47;4996777;28;20564;-59
2022/07/27 04:48:54;;;;;;;7.13;3.60;;;;;;;21.50;85.16;98058.72;4997598;28;20033;-59
2022/07/27 04:51:19;;;;;;;5.72;3.28;;;;;;;21.48;85.21;98058.97;4999280;28;20022;-60
2022/07/27 04:53:44;;;;;;;6.80;3.38;;;;;;;21.52;84.95;98056.69;4999137;28;20122;-59
2022/07/27 04:56:10;;;;;;;7.18;3.72;;;;;;;21.50;85.03;98058.72;4984096;28;20018;-59
2022/07/27 04:58:36;;;;;;;5.25;3.05;;;;;;;21.56;84.95;98062.28;4995301;28;20397;-59
2022/07/27 05:01:02;;;;;;;7.00;3.45;;;;;;;21.54;84.53;98053.78;4985119;28;20029;-59
2022/07/27 05:03:28;;;;;;;5.60;3.10;;;;;;;21.51;84.03;98041.84;4981721;28;20050;-59
2022/07/27 05:05:53;;;;;;;6.13;3.15;;;;;;;21.32;84.29;98009.38;4997782;28;20471;-58
2022/07/27 05:08:19;;;;;;;5.88;3.28;;;;;;;21.50;83.91;98033.09;4997913;28;20029;-61
2022/07/27 05:10:44;;;;;;;7.25;3.30;;;;;;;21.21;83.67;98002.22;4998712;28;20040;-59
2022/07/27 05:13:10;;;;;;;7.38;3.30;;;;;;;21.48;82.53;98027.25;4982645;28;20125;-59
2022/07/27 05:15:36;;;;;;;6.53;3.00;;;;;;;21.35;81.48;98000.19;5000804;28;20028;-59
2022/07/27 05:18:02;;;;;;;9.15;3.30;;;;;;;21.59;81.56;98022.16;4999378;28;20058;-59
2022/07/27 05:20:27;;;;;;;6.22;3.00;;;;;;;21.60;81.64;98029.09;4998837;28;20034;-58
2022/07/27 05:22:52;;;;;;;6.20;3.10;;;;;;;21.29;80.43;97988.69;4999637;28;20417;-59
2022/07/27 05:25:20;;;;;;;5.72;3.22;;;;;;;21.63;80.74;98033.88;4998137;28;20022;-59
2022/07/27 05:27:46;;;;;;;7.03;3.08;;;;;;;21.62;79.85;98024.38;4996405;28;20026;-59
2022/07/27 05:30:12;;;;;;;5.40;2.80;;;;;;;21.65;80.27;98037.13;4973302;28;20092;-59
2022/07/27 05:32:37;;;;;;;6.22;3.33;;;;;;;21.69;80.00;98031.16;4992144;28;20034;-59
2022/07/27 05:35:03;;;;;;;6.28;2.83;;;;;;;21.81;79.41;98022.38;4997503;28;20117;-59
2022/07/27 05:37:29;;;;;;;5.40;2.88;;;;;;;21.84;79.31;98027.22;4996641;28;20038;-59
2022/07/27 05:39:54;;;;;;;6.03;3.10;;;;;;;21.50;78.50;97988.16;5004140;28;20025;-60
2022/07/27 05:42:19;;;;;;;6.53;3.05;;;;;;;21.74;78.89;98034.94;4948511;28;20484;-59
2022/07/27 05:44:45;;;;;;;5.30;3.10;;;;;;;21.78;79.33;98036.91;4993641;28;20025;-59
2022/07/27 05:47:10;;;;;;;7.40;3.42;;;;;;;21.89;79.42;98040.56;5004321;28;20029;-60
2022/07/27 05:49:36;;;;;;;6.55;3.15;;;;;;;21.88;79.32;98039.75;4999272;28;20033;-59
2022/07/27 05:52:01;;;;;;;6.03;3.45;;;;;;;21.88;79.36;98037.09;4996508;28;20033;-60
2022/07/27 05:54:26;;;;;;;6.72;3.15;;;;;;;21.94;78.41;98030.09;4997916;28;20030;-59
2022/07/27 05:56:53;;;;;;;7.05;3.20;;;;;;;22.00;78.55;98031.81;4996900;28;20381;-59
2022/07/27 05:59:18;;;;;;;6.82;3.47;;;;;;;22.08;78.01;98030.63;5012356;28;20030;-58
2022/07/27 06:01:44;;;;;;;5.50;2.88;;;;;;;22.08;76.27;98034.06;4998066;28;20028;-59
2022/07/27 06:04:09;;;;;;;7.18;3.58;;;;;;;22.02;75.45;98018.34;4980480;28;20140;-59
2022/07/27 06:09:18;;;;;;;6.40;3.35;;;;;;;22.06;77.12;98032.72;4996751;28;20519;-58
2022/07/27 06:11:44;;;;;;;7.18;2.95;;;;;;;22.13;75.72;98020.16;4979534;28;20030;-60
2022/07/27 06:14:09;;;;;;;5.70;2.72;;;;;;;22.32;76.56;98049.16;4999781;28;20022;-59
2022/07/27 06:16:35;;;;;;;5.70;3.13;;;;;;;22.36;76.21;98042.34;4983983;28;20125;-58
2022/07/27 06:19:00;;;;;;;6.45;2.92;;;;;;;22.25;73.96;98026.25;4978523;28;20080;-59
2022/07/27 06:21:27;;;;;;;6.72;3.05;;;;;;;22.21;74.73;98016.34;5015835;28;20133;-58
2022/07/27 06:23:56;;;;;;;8.65;3.10;;;;;;;22.51;75.57;98053.25;4996891;28;20084;-59
2022/07/27 06:26:22;;;;;;;6.18;3.28;;;;;;;22.51;75.06;98063.06;4991694;28;20133;-59
2022/07/27 06:28:47;;;;;;;6.55;3.33;;;;;;;22.54;74.83;98067.84;4996564;28;20076;-58
2022/07/27 06:31:13;;;;;;;6.32;2.90;;;;;;;22.57;74.18;98072.69;5001604;28;20065;-59
2022/07/27 06:33:39;;;;;;;6.68;3.10;;;;;;;22.37;73.03;98036.00;4999436;28;20418;-59
2022/07/27 06:36:07;;;;;;;8.43;3.20;;;;;;;22.12;73.86;97988.63;5020943;28;20030;-59
2022/07/27 06:38:32;;;;;;;7.18;3.10;;;;;;;22.75;74.06;98069.84;4981388;28;20072;-59
2022/07/27 06:40:58;;;;;;;5.18;3.03;;;;;;;22.77;75.73;98080.22;4996322;28;20677;-59
2022/07/27 06:43:25;;;;;;;6.15;3.15;;;;;;;22.82;75.47;98075.81;4995829;28;20042;-59
2022/07/27 06:45:53;;;;;;;5.47;2.90;;;;;;;22.78;75.10;98080.00;5000393;28;20789;-58
2022/07/27 06:48:20;;;;;;;7.65;3.10;;;;;;;22.76;73.92;98078.59;4996672;28;20109;-60
2022/07/27 06:50:46;;;;;;;6.55;2.85;;;;;;;22.70;72.95;98075.06;4977753;28;20113;-61
2022/07/27 06:53:11;;;;;;;6.45;3.20;;;;;;;22.77;72.94;98070.41;4996382;28;20120;-63
2022/07/27 06:55:37;;;;;;;7.95;2.97;;;;;;;22.74;73.06;98044.38;4979989;28;20637;-63
2022/07/27 06:58:02;;;;;;;6.15;3.10;;;;;;;23.08;72.92;98070.22;4997205;28;20026;-62
2022/07/27 07:00:28;;;;;;;5.70;2.95;;;;;;;23.12;72.88;98084.59;4983457;28;20034;-62
2022/07/27 07:02:54;;;;;;;5.32;3.03;;;;;;;23.25;72.32;98080.81;4999755;28;20057;-62
2022/07/27 07:05:21;;;;;;;5.45;3.00;;;;;;;23.17;73.02;98077.53;4995757;28;20030;-62
2022/07/27 07:07:47;;;;;;;7.20;3.00;;;;;;;23.15;72.93;98079.63;4984040;28;20021;-61
2022/07/27 07:10:12;;;;;;;6.43;3.28;;;;;;;23.07;73.17;98084.50;4999410;28;20029;-63
2022/07/27 07:12:38;;;;;;;6.13;3.15;;;;;;;22.93;73.22;98076.03;5001251;28;20117;-65
2022/07/27 07:15:03;;;;;;;4.90;2.80;;;;;;;22.97;72.88;98048.00;4999468;28;20030;-61
2022/07/27 07:17:29;;;;;;;6.63;2.92;;;;;;;23.09;72.29;98067.31;4998145;28;20456;-62
2022/07/27 07:19:54;;;;;;;4.93;2.58;;;;;;;23.17;72.11;98072.22;5003020;28;20022;-63
2022/07/27 07:22:20;;;;;;;5.93;3.22;;;;;;;23.12;71.68;98066.81;5003173;28;20442;-61
2022/07/27 07:24:45;;;;;;;6.18;2.97;;;;;;;23.27;71.21;98065.47;4995737;28;20037;-62
2022/07/27 07:27:10;;;;;;;5.68;2.83;;;;;;;23.17;71.02;98060.81;5002004;28;20627;-60
2022/07/27 07:29:36;;;;;;;8.63;3.03;;;;;;;22.95;71.67;98026.22;4995401;28;20023;-61
2022/07/27 07:32:01;;;;;;;6.05;3.00;;;;;;;23.25;72.12;98062.25;5003158;28;20030;-62
2022/07/27 07:34:28;;;;;;;6.47;2.83;;;;;;;23.33;71.16;98061.88;5002764;28;20025;-63
2022/07/27 07:36:54;;;;;;;8.10;2.95;;;;;;;23.29;70.01;98063.38;4993251;28;20108;-61
2022/07/27 07:39:20;;;;;;;4.97;2.78;;;;;;;23.21;69.50;98054.78;4996792;28;20076;-62
2022/07/27 07:41:45;;;;;;;6.70;3.53;;;;;;;23.08;69.33;98039.19;4998994;28;20030;-64
2022/07/27 07:44:11;;;;;;;6.63;2.85;;;;;;;23.19;69.98;98064.03;4999137;28;20030;-60
2022/07/27 07:46:36;;;;;;;6.80;2.88;;;;;;;23.17;69.51;98064.25;4997670;28;20248;-61
2022/07/27 07:49:03;;;;;;;6.10;3.00;;;;;;;23.20;69.11;98066.44;5001935;28;20029;-62
2022/07/27 07:51:28;;;;;;;7.22;3.03;;;;;;;22.99;70.05;98032.66;5003000;28;20038;-59
2022/07/27 07:53:54;;;;;;;5.13;2.80;;;;;;;23.48;68.81;98059.47;4996833;28;20033;-61
2022/07/27 07:56:19;;;;;;;6.55;3.20;;;;;;;24.04;65.91;98058.69;5001047;28;20060;-62
2022/07/27 07:58:44;;;;;;;5.68;3.20;;;;;;;24.37;63.81;98047.94;5002748;28;20018;-62
2022/07/27 08:01:11;;;;;;;6.05;2.92;;;;;;;24.81;62.81;98046.34;5001207;28;20034;-62
2022/07/27 08:03:37;;;;;;;6.50;2.92;;;;;;;25.31;60.24;98047.84;4999973;28;20029;-61
2022/07/27 08:06:02;;;;;;;6.65;3.05;;;;;;;25.57;58.42;98048.84;5002002;28;20053;-63
2022/07/27 08:08:28;;;;;;;5.28;2.80;;;;;;;25.83;56.16;98041.00;5002405;28;20049;-61
2022/07/27 08:10:54;;;;;;;5.50;2.80;;;;;;;25.95;56.34;98038.97;4983741;28;20197;-61
2022/07/27 08:13:20;;;;;;;5.15;2.67;;;;;;;25.93;56.26;98030.44;4984544;28;20501;-61
2022/07/27 08:15:45;;;;;;;7.45;2.80;;;;;;;26.26;55.31;98031.91;4983089;28;20733;-63
2022/07/27 08:18:11;;;;;;;5.93;2.72;;;;;;;26.26;54.84;98023.13;5002329;28;20105;-61
2022/07/27 08:20:36;;;;;;;5.20;2.92;;;;;;;26.22;54.33;98022.84;4996671;28;20023;-63
2022/07/27 08:23:02;;;;;;;6.13;2.85;;;;;;;26.60;54.02;98031.53;4998851;28;20018;-62
2022/07/27 08:25:27;;;;;;;5.63;2.53;;;;;;;26.94;51.40;98031.06;5003109;28;20034;-62
2022/07/27 08:27:53;;;;;;;9.60;2.90;;;;;;;27.53;50.20;98027.06;4983549;28;20026;-62
2022/07/27 08:30:18;;;;;;;5.63;2.35;;;;;;;27.70;49.07;98031.31;5002976;28;20456;-62
2022/07/27 08:32:58;;;;;;;4.50;2.38;;;;;;;27.40;49.09;98022.28;4999727;28;20100;-61
2022/07/27 08:35:24;;;;;;;5.82;2.80;;;;;;;27.73;48.96;98030.78;5001120;28;20026;-62
2022/07/27 08:37:50;;;;;;;6.18;2.58;;;;;;;27.47;47.54;98027.34;5000433;28;20040;-63
2022/07/27 08:40:16;;;;;;;5.55;2.35;;;;;;;27.64;46.10;98033.19;5001319;28;20041;-63
2022/07/27 08:42:44;;;;;;;6.13;2.67;;;;;;;27.68;48.43;98004.88;4995047;28;20117;-63
2022/07/27 08:45:12;;;;;;;5.45;2.75;;;;;;;27.56;48.73;98023.88;5001218;28;20056;-61
2022/07/27 08:47:38;;;;;;;5.93;2.65;;;;;;;27.88;48.33;98024.59;4997449;28;20129;-64
2022/07/27 08:50:21;;;;;;;6.25;2.95;;;;;;;28.11;47.93;98001.81;4978577;28;20024;-61
2022/07/27 08:53:07;;;;;;;5.00;2.90;;;;;;;28.60;46.80;98029.66;4998111;28;20538;-61
2022/07/27 08:55:36;;;;;;;6.88;2.63;;;;;;;28.68;46.34;98023.75;5002604;28;20049;-61
2022/07/27 08:58:02;;;;;;;5.75;2.47;;;;;;;28.95;46.31;98013.38;4993313;28;20045;-62
2022/07/27 09:00:28;;;;;;;5.68;2.60;;;;;;;28.59;46.99;98001.34;4997626;28;20033;-60
2022/07/27 09:02:54;;;;;;;4.90;2.30;;;;;;;28.74;47.36;98012.72;4995081;28;20075;-64
2022/07/27 09:05:20;;;;;;;6.20;2.80;;;;;;;28.50;46.52;98017.94;5001144;28;20030;-62
2022/07/27 09:07:45;;;;;;;6.30;2.95;;;;;;;29.10;47.49;98015.13;4999716;28;20482;-63
2022/07/27 09:10:11;;;;;;;5.47;2.63;;;;;;;28.96;47.98;98011.50;5000706;28;20788;-63
2022/07/27 09:12:37;;;;;;;5.30;2.80;;;;;;;29.17;47.51;98004.16;4998121;28;20030;-63
2022/07/27 09:15:12;;;;;;;5.00;2.78;;;;;;;28.84;47.92;98001.16;4983902;28;20025;-63
2022/07/27 09:17:40;;;;;;;5.78;2.58;;;;;;;29.21;46.90;97975.75;4995532;28;20024;-60
2022/07/27 09:20:09;;;;;;;5.38;2.50;;;;;;;29.59;45.64;98005.34;5000069;28;20030;-63
2022/07/27 09:22:51;;;;;;;5.60;2.75;;;;;;;29.93;45.32;98009.03;4982636;28;20431;-63
2022/07/27 09:25:25;;;;;;;5.75;2.75;;;;;;;30.28;44.73;98002.41;5006486;28;20029;-62
2022/07/27 09:27:55;;;;;;;7.18;2.63;;;;;;;30.09;44.32;97980.97;4995956;28;20026;-62
2022/07/27 09:30:21;;;;;;;5.85;2.95;;;;;;;29.95;45.21;98004.97;4993501;28;20104;-63
2022/07/27 09:32:58;;;;;;;5.03;2.40;;;;;;;29.43;46.14;98001.25;4983751;28;20081;-64
2022/07/27 09:35:35;;;;;;;4.78;2.30;;;;;;;29.71;45.09;97972.81;5000775;28;20108;-59
2022/07/27 09:38:20;;;;;;;5.50;2.63;;;;;;;30.02;45.11;97999.28;4998300;28;20822;-60
2022/07/27 09:40:48;;;;;;;5.82;2.90;;;;;;;28.98;46.51;97998.63;4998130;28;20026;-61
2022/07/27 09:43:14;;;;;;;6.68;3.00;;;;;;;28.59;47.93;97966.59;4999854;28;20092;-62
2022/07/27 09:45:44;;;;;;;5.43;2.90;;;;;;;29.04;48.30;97994.88;4999394;28;20519;-61
2022/07/27 09:48:17;;;;;;;5.60;2.63;;;;;;;28.95;48.23;97991.16;4990877;28;20105;-62
2022/07/27 09:50:58;;;;;;;6.10;2.22;;;;;;;29.10;47.43;97982.22;4991594;28;20033;-61
2022/07/27 09:53:26;;;;;;;5.25;2.38;;;;;;;28.49;45.34;97986.13;5000500;28;20172;-63
2022/07/27 09:55:55;;;;;;;4.80;2.30;;;;;;;28.29;44.14;97965.66;4998442;28;20021;-63
2022/07/27 09:58:21;;;;;;;4.60;2.50;;;;;;;28.13;45.44;97988.97;4998651;28;20824;-64
2022/07/27 10:00:56;;;;;;;4.85;2.10;;;;;;;28.20;45.73;97986.81;4982567;28;20033;-62
2022/07/27 10:03:22;;;;;;;4.93;2.42;;;;;;;28.04;47.79;97953.22;4999788;28;20053;-63
2022/07/27 10:05:47;;;;;;;4.97;2.30;;;;;;;28.24;47.26;97987.88;5000279;28;20022;-59
2022/07/27 10:08:12;;;;;;;5.30;2.40;;;;;;;28.15;48.59;97981.50;4996721;28;20532;-63
2022/07/27 10:10:38;;;;;;;4.65;2.28;;;;;;;28.19;47.76;97977.19;4992360;28;20048;-60
2022/07/27 10:13:04;;;;;;;5.72;2.72;;;;;;;28.00;46.26;97982.34;4998739;28;20025;-60
2022/07/27 10:15:29;;;;;;;5.28;2.42;;;;;;;27.87;48.09;97950.84;4982118;28;20384;-60
2022/07/27 10:18:00;;;;;;;4.82;2.38;;;;;;;28.36;49.09;97976.84;4997739;28;20014;-62
2022/07/27 10:20:26;;;;;;;4.60;2.50;;;;;;;28.39;46.98;97973.63;4999023;28;20064;-63
2022/07/27 10:22:54;;;;;;;7.05;2.42;;;;;;;28.35;45.75;97967.22;4988311;28;20555;-61
2022/07/27 10:25:21;;;;;;;5.38;2.30;;;;;;;28.32;48.33;97962.44;4997188;28;20073;-62
2022/07/27 10:27:48;;;;;;;6.55;2.58;;;;;;;28.51;47.61;97962.56;4983025;28;20149;-61
2022/07/27 10:30:16;;;;;;;4.32;2.33;;;;;;;28.29;46.33;97934.34;4987929;28;20130;-63
2022/07/27 10:32:43;;;;;;;4.80;2.17;;;;;;;28.45;48.06;97963.69;4980511;28;20479;-61
2022/07/27 10:35:32;;;;;;;5.55;2.30;;;;;;;28.46;46.87;97958.06;4999577;28;20018;-62
2022/07/27 10:38:14;;;;;;;5.53;2.22;;;;;;;28.66;43.67;97957.16;4997564;28;20052;-60
2022/07/27 10:40:40;;;;;;;6.25;2.50;;;;;;;28.64;44.62;97951.28;4999679;28;20153;-63
2022/07/27 10:43:25;;;;;;;5.53;2.22;;;;;;;28.59;44.08;97955.88;4984447;28;20133;-62
2022/07/27 10:45:51;;;;;;;6.32;2.25;;;;;;;28.63;44.10;97952.34;5001524;28;20448;-61
2022/07/27 10:48:36;;;;;;;6.18;2.42;;;;;;;28.67;44.65;97953.41;5002442;28;20105;-62
2022/07/27 10:51:04;;;;;;;4.95;2.30;;;;;;;28.88;44.55;97946.03;5002769;28;20068;-63
2022/07/27 10:53:35;;;;;;;4.70;2.00;;;;;;;28.86;44.62;97937.47;5001783;28;20293;-62
2022/07/27 10:56:01;;;;;;;5.18;2.50;;;;;;;28.97;44.53;97945.41;5016342;28;20034;-62
2022/07/27 10:58:27;;;;;;;5.30;2.20;;;;;;;28.92;44.38;97941.69;4984559;28;20355;-62
2022/07/27 11:00:52;;;;;;;4.72;2.30;;;;;;;28.62;43.45;97931.25;5002927;28;20021;-62
2022/07/27 11:03:21;;;;;;;4.57;2.00;;;;;;;28.43;43.07;97907.81;5004966;28;20030;-65
2022/07/27 11:05:59;;;;;;;5.25;2.00;;;;;;;28.61;42.69;97930.44;5002191;28;20778;-62
2022/07/27 11:08:25;;;;;;;4.63;2.15;;;;;;;28.57;42.10;97924.06;5019157;28;20448;-62
2022/07/27 11:10:51;;;;;;;5.20;2.10;;;;;;;28.62;41.62;97915.19;5001724;28;20060;-59
2022/07/27 11:13:18;;;;;;;4.55;2.00;;;;;;;28.69;42.44;97926.38;5003010;28;20065;-63
2022/07/27 11:15:52;;;;;;;4.30;2.22;;;;;;;28.78;41.62;97921.22;4992506;28;20029;-60
2022/07/27 11:18:18;;;;;;;5.03;2.00;;;;;;;28.66;41.76;97905.53;4997711;28;20026;-64
2022/07/27 11:20:43;;;;;;;4.85;2.00;;;;;;;28.58;42.75;97912.28;5000880;28;20026;-59
2022/07/27 11:23:19;;;;;;;4.80;2.03;;;;;;;28.61;42.23;97908.25;5001242;28;20026;-63
2022/07/27 11:26:00;;;;;;;6.00;1.95;;;;;;;28.50;43.37;97904.84;5000035;28;20034;-60
2022/07/27 11:28:30;;;;;;;4.28;1.90;;;;;;;28.38;42.78;97905.19;5001270;28;20091;-58
2022/07/27 11:30:57;;;;;;;4.25;1.92;;;;;;;28.50;42.28;97902.97;4987999;28;20075;-58
2022/07/27 11:33:23;;;;;;;4.35;2.10;;;;;;;28.63;43.54;97893.53;4980886;28;20713;-60
2022/07/27 11:35:56;;;;;;;4.40;1.85;;;;;;;28.74;41.06;97878.19;5003202;28;20101;-57
2022/07/27 11:38:22;;;;;;;5.95;2.00;;;;;;;28.93;40.86;97887.13;4999877;28;20026;-60